Time;durP1;ratioP1;P1;durP2;ratioP2;P2;SDS_P1;SDS_P2;PMS_P1;PMS_P2;Temp;Humidity;BMP_temperature;BMP_pressure;BME280_temperature;BME280_humidity;BME280_pressure;Samples;Min_cycle;Max_cycle;Signal;HPM_P1;HPM_P2
2022/07/18 00:00:24;;;;;;;0.77;0.40;;;21.50;99.90;;;;;;5118941;28;20449;-72
2022/07/18 00:02:51;;;;;;;0.90;0.50;;;21.50;99.90;;;;;;5118760;28;20484;-71
2022/07/18 00:05:18;;;;;;;0.60;0.50;;;21.50;99.90;;;;;;5118894;28;20864;-71
2022/07/18 00:07:46;;;;;;;0.90;0.60;;;21.50;99.90;;;;;;5118740;28;20888;-72
2022/07/18 00:10:13;;;;;;;0.90;0.50;;;21.40;99.90;;;;;;5118708;28;20495;-72
2022/07/18 00:12:40;;;;;;;1.03;0.50;;;21.30;99.90;;;;;;5118946;28;20510;-71
2022/07/18 00:15:10;;;;;;;1.33;0.50;;;21.30;99.90;;;;;;5118958;28;20483;-71
2022/07/18 00:17:38;;;;;;;0.60;0.50;;;21.20;99.90;;;;;;5118625;28;20484;-72
2022/07/18 00:20:06;;;;;;;0.60;0.33;;;21.20;99.90;;;;;;5118490;28;20876;-72
2022/07/18 00:22:34;;;;;;;1.00;0.53;;;21.20;99.90;;;;;;5118558;28;20467;-72
2022/07/18 00:25:01;;;;;;;0.80;0.50;;;21.20;99.90;;;;;;5118948;28;20456;-72
2022/07/18 00:27:28;;;;;;;0.70;0.50;;;21.20;99.90;;;;;;5118910;28;20513;-72
2022/07/18 00:29:55;;;;;;;2.83;1.10;;;21.20;99.90;;;;;;5118713;28;20442;-72
2022/07/18 00:32:23;;;;;;;2.00;0.70;;;21.10;99.90;;;;;;5117651;28;20445;-72
2022/07/18 00:34:50;;;;;;;3.23;0.50;;;21.10;99.90;;;;;;5117337;28;20531;-71
2022/07/18 00:37:17;;;;;;;0.87;0.40;;;21.10;99.90;;;;;;5117790;28;20492;-72
2022/07/18 00:39:44;;;;;;;0.50;0.40;;;21.10;99.90;;;;;;5117520;28;20825;-71
2022/07/18 00:42:10;;;;;;;0.50;0.40;;;20.90;99.90;;;;;;5118034;28;20488;-73
2022/07/18 00:44:37;;;;;;;1.10;0.70;;;20.90;99.90;;;;;;5117765;28;20535;-72
2022/07/18 00:47:04;;;;;;;0.70;0.50;;;20.90;99.90;;;;;;5117442;28;20488;-71
2022/07/18 00:49:33;;;;;;;0.67;0.40;;;20.90;99.90;;;;;;5118136;28;20449;-71
2022/07/18 00:52:00;;;;;;;0.63;0.50;;;20.90;99.90;;;;;;5117912;28;20546;-72
2022/07/18 00:54:27;;;;;;;3.30;0.67;;;20.80;99.90;;;;;;5117383;28;20487;-70
2022/07/18 00:56:54;;;;;;;0.70;0.43;;;20.80;99.90;;;;;;5118220;28;20545;-71
2022/07/18 00:59:21;;;;;;;1.43;0.50;;;20.70;99.90;;;;;;5117728;28;20488;-71
2022/07/18 01:01:47;;;;;;;0.80;0.40;;;20.60;99.90;;;;;;5117655;28;20879;-71
2022/07/18 01:04:17;;;;;;;0.70;0.40;;;20.60;99.90;;;;;;5117631;28;20498;-71
2022/07/18 01:06:46;;;;;;;0.80;0.40;;;20.50;99.90;;;;;;5117513;28;20927;-71
2022/07/18 01:09:13;;;;;;;0.70;0.40;;;20.60;99.90;;;;;;5117751;28;20480;-71
2022/07/18 01:11:40;;;;;;;0.77;0.57;;;20.50;99.90;;;;;;5117593;28;20812;-71
2022/07/18 01:14:08;;;;;;;0.50;0.30;;;20.50;99.90;;;;;;5117466;28;20918;-71
2022/07/18 01:16:35;;;;;;;0.80;0.43;;;20.50;99.90;;;;;;5117550;28;20456;-72
2022/07/18 01:19:03;;;;;;;0.80;0.40;;;20.50;99.90;;;;;;5117401;28;20646;-71
2022/07/18 01:21:31;;;;;;;1.10;0.40;;;20.50;99.90;;;;;;5116227;28;20491;-72
2022/07/18 01:23:58;;;;;;;1.10;0.50;;;20.50;99.90;;;;;;5117357;28;20484;-71
2022/07/18 01:26:26;;;;;;;0.70;0.40;;;20.50;99.90;;;;;;5117334;28;20495;-70
2022/07/18 01:28:52;;;;;;;0.57;0.43;;;20.40;99.90;;;;;;5117029;28;20493;-71
2022/07/18 01:31:19;;;;;;;0.77;0.37;;;20.40;99.90;;;;;;5116646;28;20452;-72
2022/07/18 01:33:46;;;;;;;0.53;0.40;;;20.40;99.90;;;;;;5116760;28;20495;-71
2022/07/18 01:36:13;;;;;;;0.70;0.40;;;20.40;99.90;;;;;;5117082;28;20452;-72
2022/07/18 01:38:42;;;;;;;0.80;0.40;;;20.40;99.90;;;;;;5116952;28;20520;-73
2022/07/18 01:41:08;;;;;;;1.20;0.47;;;20.40;99.90;;;;;;5116662;28;20508;-72
2022/07/18 01:43:40;;;;;;;0.60;0.30;;;20.40;99.90;;;;;;5117052;28;20535;-72
2022/07/18 01:46:07;;;;;;;1.23;0.50;;;20.40;99.90;;;;;;5117017;28;20888;-72
2022/07/18 01:48:34;;;;;;;0.60;0.40;;;20.40;99.90;;;;;;5117013;28;20476;-71
2022/07/18 01:51:01;;;;;;;0.77;0.50;;;20.40;99.90;;;;;;5116590;28;20476;-72
2022/07/18 01:53:28;;;;;;;1.70;0.50;;;20.40;99.90;;;;;;5117031;28;20489;-71
2022/07/18 01:55:56;;;;;;;0.93;0.40;;;20.40;99.90;;;;;;5116539;28;20480;-71
2022/07/18 01:58:23;;;;;;;0.70;0.40;;;20.30;99.90;;;;;;5116654;28;20487;-72
2022/07/18 02:00:50;;;;;;;0.80;0.47;;;20.30;99.90;;;;;;5116512;28;20531;-72
2022/07/18 02:03:17;;;;;;;0.77;0.50;;;20.30;99.90;;;;;;5116393;28;20444;-71
2022/07/18 02:05:44;;;;;;;0.87;0.40;;;20.30;99.90;;;;;;5115866;28;20445;-72
2022/07/18 02:08:11;;;;;;;0.77;0.40;;;20.20;99.90;;;;;;5116480;28;20464;-71
2022/07/18 02:10:38;;;;;;;1.20;0.50;;;20.20;99.90;;;;;;5116704;28;20872;-72
2022/07/18 02:13:06;;;;;;;2.30;0.50;;;20.20;99.90;;;;;;5116629;28;20460;-72
2022/07/18 02:15:33;;;;;;;0.40;0.33;;;20.20;99.90;;;;;;5116596;28;21045;-72
2022/07/18 02:18:00;;;;;;;0.70;0.40;;;20.10;99.90;;;;;;5116816;28;20743;-72
2022/07/18 02:20:27;;;;;;;0.97;0.40;;;20.10;99.90;;;;;;5116660;28;20503;-72
2022/07/18 02:22:54;;;;;;;1.67;0.40;;;20.00;99.90;;;;;;5116768;28;20461;-72
2022/07/18 02:25:21;;;;;;;0.60;0.30;;;20.00;99.90;;;;;;5117009;28;20515;-71
2022/07/18 02:27:48;;;;;;;1.93;0.40;;;19.90;99.90;;;;;;5116639;28;20449;-71
2022/07/18 02:30:16;;;;;;;0.60;0.40;;;19.90;99.90;;;;;;5116771;28;20476;-72
2022/07/18 02:32:43;;;;;;;0.50;0.40;;;19.90;99.90;;;;;;5116436;28;20453;-71
2022/07/18 02:35:10;;;;;;;0.60;0.40;;;19.80;99.90;;;;;;5116513;28;20814;-71
2022/07/18 02:37:40;;;;;;;0.60;0.40;;;19.80;99.90;;;;;;5116292;28;20519;-73
2022/07/18 02:40:09;;;;;;;0.60;0.37;;;19.80;99.90;;;;;;5116364;28;20939;-72
2022/07/18 02:42:36;;;;;;;0.57;0.37;;;19.80;99.90;;;;;;5116241;28;20551;-71
2022/07/18 02:45:03;;;;;;;1.13;0.40;;;19.80;99.90;;;;;;5116538;28;20484;-71
2022/07/18 02:47:31;;;;;;;0.60;0.40;;;19.80;99.90;;;;;;5116595;28;20492;-71
2022/07/18 02:49:58;;;;;;;1.70;0.50;;;19.80;99.90;;;;;;5116415;28;20448;-71
2022/07/18 02:52:25;;;;;;;2.13;0.40;;;19.80;99.90;;;;;;5116327;28;20525;-72
2022/07/18 02:54:52;;;;;;;0.60;0.37;;;19.80;99.90;;;;;;5116064;28;20811;-72
2022/07/18 02:57:19;;;;;;;0.50;0.30;;;19.80;99.90;;;;;;5115822;28;20516;-71
2022/07/18 02:59:46;;;;;;;0.60;0.40;;;19.70;99.90;;;;;;5115971;28;20896;-72
2022/07/18 03:02:13;;;;;;;0.60;0.40;;;19.70;99.90;;;;;;5115991;28;20463;-71
2022/07/18 03:04:41;;;;;;;0.70;0.40;;;19.70;99.90;;;;;;5116024;28;20483;-72
2022/07/18 03:07:08;;;;;;;0.80;0.40;;;19.70;99.90;;;;;;5116042;28;20779;-72
2022/07/18 03:09:35;;;;;;;0.53;0.40;;;19.70;99.90;;;;;;5116208;28;20480;-72
2022/07/18 03:12:02;;;;;;;0.57;0.40;;;19.60;99.90;;;;;;5115941;28;20530;-72
2022/07/18 03:14:29;;;;;;;0.60;0.40;;;19.60;99.90;;;;;;5116168;28;20487;-72
2022/07/18 03:16:56;;;;;;;0.70;0.40;;;19.60;99.90;;;;;;5117946;28;20491;-72
2022/07/18 03:19:23;;;;;;;1.23;0.40;;;19.60;99.90;;;;;;5119587;28;20520;-72
2022/07/18 03:21:51;;;;;;;0.90;0.40;;;19.50;99.90;;;;;;5119717;28;20452;-71
2022/07/18 03:24:18;;;;;;;0.77;0.40;;;19.40;99.90;;;;;;5120027;28;20487;-71
2022/07/18 03:26:45;;;;;;;0.60;0.40;;;19.30;99.90;;;;;;5119756;28;20524;-71
2022/07/18 03:29:12;;;;;;;0.70;0.30;;;19.30;99.90;;;;;;5118763;28;20441;-71
2022/07/18 03:31:40;;;;;;;1.10;0.40;;;19.30;99.90;;;;;;5119596;28;20507;-71
2022/07/18 03:34:07;;;;;;;0.90;0.40;;;19.30;99.90;;;;;;5119185;28;20747;-71
2022/07/18 03:36:34;;;;;;;0.60;0.30;;;19.30;99.90;;;;;;5119392;28;20892;-71
2022/07/18 03:39:02;;;;;;;0.60;0.40;;;19.30;99.90;;;;;;5119161;28;20480;-72
2022/07/18 03:41:29;;;;;;;0.63;0.50;;;19.30;99.90;;;;;;5119429;28;20488;-72
2022/07/18 03:43:56;;;;;;;0.70;0.40;;;19.30;99.90;;;;;;5119052;28;20440;-72
2022/07/18 03:46:23;;;;;;;1.03;0.40;;;19.30;99.90;;;;;;5119214;28;20547;-72
2022/07/18 03:48:54;;;;;;;0.70;0.40;;;19.30;99.90;;;;;;5119064;28;20541;-72
2022/07/18 03:51:21;;;;;;;1.33;0.50;;;19.40;99.90;;;;;;5118951;28;20998;-72
2022/07/18 03:53:48;;;;;;;1.10;0.80;;;19.40;99.90;;;;;;5118872;28;20823;-71
2022/07/18 03:56:16;;;;;;;1.33;0.50;;;19.40;99.90;;;;;;5118827;28;20480;-71
2022/07/18 03:58:43;;;;;;;1.00;0.50;;;19.40;99.90;;;;;;5118636;28;20508;-73
2022/07/18 04:01:10;;;;;;;0.60;0.43;;;19.40;99.90;;;;;;5118711;28;20472;-72
2022/07/18 04:03:37;;;;;;;0.90;0.40;;;19.30;99.90;;;;;;5118749;28;20835;-72
2022/07/18 04:06:04;;;;;;;0.70;0.47;;;19.30;99.90;;;;;;5118435;28;20487;-71
2022/07/18 04:08:31;;;;;;;1.33;0.50;;;19.30;99.90;;;;;;5118821;28;20532;-72
2022/07/18 04:10:58;;;;;;;0.60;0.40;;;19.30;99.90;;;;;;5118723;28;20823;-71
2022/07/18 04:13:26;;;;;;;0.73;0.40;;;19.30;1.00;;;;;;5118274;28;20484;-73
2022/07/18 04:15:53;;;;;;;1.40;0.40;;;19.30;99.90;;;;;;5116261;28;20444;-72
2022/07/18 04:18:20;;;;;;;1.73;0.50;;;19.30;99.90;;;;;;5116641;28;20604;-72
2022/07/18 04:20:47;;;;;;;2.00;0.50;;;19.40;99.90;;;;;;5116674;28;20931;-73
2022/07/18 04:23:14;;;;;;;0.60;0.47;;;19.40;99.90;;;;;;5116788;28;20896;-71
2022/07/18 04:25:42;;;;;;;1.27;0.50;;;19.40;99.90;;;;;;5117180;28;20456;-71
2022/07/18 04:28:11;;;;;;;1.03;0.47;;;19.40;99.90;;;;;;5116535;28;20816;-71
2022/07/18 04:30:41;;;;;;;0.70;0.50;;;19.40;1.00;;;;;;5118383;28;20739;-72
2022/07/18 04:33:11;;;;;;;0.60;0.40;;;19.50;1.00;;;;;;5118399;28;20898;-71
2022/07/18 04:35:38;;;;;;;1.10;0.33;;;19.60;1.00;;;;;;5118041;28;20448;-71
2022/07/18 04:38:06;;;;;;;1.10;0.40;;;19.70;1.00;;;;;;5117422;28;20488;-72
2022/07/18 04:40:33;;;;;;;1.13;0.43;;;19.60;1.00;;;;;;5117921;28;20477;-74
2022/07/18 04:43:00;;;;;;;0.53;0.40;;;19.60;1.00;;;;;;5118062;28;20492;-72
2022/07/18 04:45:27;;;;;;;0.60;0.50;;;19.50;1.00;;;;;;5117844;28;20468;-72
2022/07/18 04:47:56;;;;;;;0.70;0.40;;;19.40;1.00;;;;;;5116770;28;20552;-73
2022/07/18 04:50:24;;;;;;;0.90;0.40;;;19.40;1.00;;;;;;5116184;28;20784;-71
2022/07/18 04:52:52;;;;;;;1.23;0.40;;;19.40;1.00;;;;;;5115872;28;20775;-72
2022/07/18 04:55:21;;;;;;;2.37;0.50;;;19.30;1.00;;;;;;5114906;28;20482;-71
2022/07/18 04:57:49;;;;;;;1.00;0.40;;;19.40;1.00;;;;;;5115630;28;20456;-72
2022/07/18 05:00:18;;;;;;;1.23;0.50;;;19.40;1.00;;;;;;5115830;28;20479;-72
2022/07/18 05:02:46;;;;;;;0.80;0.40;;;19.50;1.00;;;;;;5116077;28;20816;-71
2022/07/18 05:05:17;;;;;;;0.70;0.50;;;19.60;1.00;;;;;;5117124;28;20480;-71
2022/07/18 05:07:46;;;;;;;1.93;0.60;;;19.70;1.00;;;;;;5116552;28;20452;-71
2022/07/18 05:10:15;;;;;;;0.70;0.40;;;19.80;1.00;;;;;;5116839;28;20468;-71
2022/07/18 05:12:44;;;;;;;0.50;0.40;;;19.70;1.00;;;;;;5116082;28;20500;-71
2022/07/18 05:15:14;;;;;;;0.80;0.43;;;19.70;1.00;;;;;;5116535;28;20451;-72
2022/07/18 05:17:41;;;;;;;0.60;0.50;;;19.70;1.00;;;;;;5116257;28;20555;-71
2022/07/18 05:20:11;;;;;;;1.20;0.50;;;19.80;1.00;;;;;;5116174;28;20574;-72
2022/07/18 05:22:39;;;;;;;0.70;0.43;;;19.90;1.00;;;;;;5115896;28;20496;-73
2022/07/18 05:25:08;;;;;;;1.53;0.40;;;20.00;1.00;;;;;;5114918;28;20444;-71
2022/07/18 05:27:35;;;;;;;0.67;0.40;;;19.70;1.00;;;;;;5115112;28;20492;-72
2022/07/18 05:30:05;;;;;;;0.90;0.50;;;19.60;1.00;;;;;;5115676;28;20821;-71
2022/07/18 05:32:32;;;;;;;2.07;0.63;;;19.50;1.00;;;;;;5116094;28;20445;-72
2022/07/18 05:35:00;;;;;;;0.67;0.50;;;19.50;1.00;;;;;;5116146;28;20555;-70
2022/07/18 05:37:27;;;;;;;0.63;0.60;;;19.50;1.00;;;;;;5115360;28;20492;-70
2022/07/18 05:39:55;;;;;;;1.73;0.50;;;19.60;1.00;;;;;;5116287;28;20583;-71
2022/07/18 05:42:22;;;;;;;1.00;0.50;;;19.80;1.00;;;;;;5115703;28;20483;-72
2022/07/18 05:44:49;;;;;;;0.70;0.50;;;20.00;1.00;;;;;;5116444;28;20533;-72
2022/07/18 05:47:16;;;;;;;0.60;0.43;;;20.10;1.00;;;;;;5115860;28;20955;-71
2022/07/18 05:49:43;;;;;;;0.83;0.57;;;20.20;1.00;;;;;;5112500;28;20523;-72
2022/07/18 05:52:09;;;;;;;1.00;0.50;;;20.30;1.00;;;;;;5113026;28;20743;-72
2022/07/18 05:54:36;;;;;;;1.10;0.70;;;20.40;1.00;;;;;;5113013;28;20445;-72
2022/07/18 05:57:06;;;;;;;1.63;0.70;;;20.50;1.00;;;;;;5112338;28;20950;-71
2022/07/18 05:59:33;;;;;;;1.27;0.60;;;20.40;1.00;;;;;;5112776;28;20860;-71
2022/07/18 06:02:00;;;;;;;0.90;0.60;;;20.30;1.00;;;;;;5113122;28;20770;-72
2022/07/18 06:04:27;;;;;;;1.17;0.60;;;20.20;1.00;;;;;;5114023;28;20539;-72
2022/07/18 06:06:53;;;;;;;0.80;0.60;;;20.10;1.00;;;;;;5115730;28;20782;-74
2022/07/18 06:09:21;;;;;;;1.63;0.60;;;20.10;1.00;;;;;;5115871;28;20540;-74
2022/07/18 06:11:47;;;;;;;0.97;0.70;;;20.20;1.00;;;;;;5115490;28;20841;-74
2022/07/18 06:14:16;;;;;;;1.03;0.50;;;20.30;1.00;;;;;;5115340;28;20483;-74
2022/07/18 06:16:43;;;;;;;2.30;0.60;;;20.30;1.00;;;;;;5116110;28;20460;-74
2022/07/18 06:19:10;;;;;;;1.10;0.63;;;20.50;1.00;;;;;;5115326;28;21002;-75
2022/07/18 06:21:36;;;;;;;0.90;0.60;;;20.50;1.00;;;;;;5114884;28;20519;-74
2022/07/18 06:24:04;;;;;;;0.70;0.50;;;20.60;1.00;;;;;;5115564;28;20482;-74
2022/07/18 06:26:31;;;;;;;0.80;0.70;;;20.70;1.00;;;;;;5116429;28;20463;-75
2022/07/18 06:28:58;;;;;;;0.87;0.70;;;20.70;1.00;;;;;;5116144;28;20444;-75
2022/07/18 06:31:26;;;;;;;1.00;0.70;;;20.80;1.00;;;;;;5114740;28;20541;-75
2022/07/18 06:33:53;;;;;;;2.50;0.50;;;20.90;1.00;;;;;;5113890;28;20818;-75
2022/07/18 06:36:23;;;;;;;1.60;0.60;;;20.90;1.00;;;;;;5112854;28;20455;-75
2022/07/18 06:38:50;;;;;;;2.10;0.70;;;21.10;1.00;;;;;;5112239;28;20479;-75
2022/07/18 06:41:17;;;;;;;0.80;0.60;;;21.20;1.00;;;;;;5111806;28;20618;-74
2022/07/18 06:43:44;;;;;;;1.23;0.70;;;21.40;1.00;;;;;;5111156;28;20549;-75
2022/07/18 06:46:11;;;;;;;0.77;0.57;;;21.60;1.00;;;;;;5110333;28;20485;-74
2022/07/18 06:48:40;;;;;;;1.43;0.70;;;21.70;1.00;;;;;;5111239;28;20472;-74
2022/07/18 06:51:08;;;;;;;1.17;0.63;;;21.80;1.00;;;;;;5113296;28;20550;-75
2022/07/18 06:53:35;;;;;;;0.80;0.63;;;21.90;1.00;;;;;;5117791;28;20543;-75
2022/07/18 06:56:03;;;;;;;1.30;0.63;;;22.00;1.00;;;;;;5117652;28;20513;-75
2022/07/18 06:58:33;;;;;;;1.30;0.63;;;22.20;1.00;;;;;;5117990;28;20467;-74
2022/07/18 07:01:00;;;;;;;1.37;0.70;;;22.30;1.00;;;;;;5118287;28;20482;-75
2022/07/18 07:03:27;;;;;;;0.90;0.70;;;22.40;1.00;;;;;;5118227;28;20448;-75
2022/07/18 07:06:02;;;;;;;1.00;0.83;;;22.40;1.00;;;;;;5118994;28;20475;-74
2022/07/18 07:08:29;;;;;;;1.50;0.67;;;22.40;1.00;;;;;;5119286;28;20448;-75
2022/07/18 07:10:58;;;;;;;1.43;0.70;;;22.40;1.00;;;;;;5118524;28;20456;-76
2022/07/18 07:13:25;;;;;;;0.80;0.60;;;22.50;1.00;;;;;;5117617;28;20471;-75
2022/07/18 07:15:52;;;;;;;1.57;0.70;;;22.70;1.00;;;;;;5116059;28;20425;-76
2022/07/18 07:18:19;;;;;;;1.20;0.80;;;22.80;1.00;;;;;;5117502;28;20445;-75
2022/07/18 07:20:46;;;;;;;2.07;0.60;;;22.90;1.00;;;;;;5117961;28;20459;-76
2022/07/18 07:23:30;;;;;;;1.20;0.70;;;23.10;1.00;;;;;;5118160;28;20487;-76
2022/07/18 07:25:57;;;;;;;1.27;0.60;;;23.20;1.00;;;;;;5118296;28;20440;-75
2022/07/18 07:28:28;;;;;;;0.77;0.50;;;23.30;1.00;;;;;;5118292;28;20955;-75
2022/07/18 07:30:55;;;;;;;0.80;0.57;;;23.40;1.00;;;;;;5118066;28;20440;-76
2022/07/18 07:33:22;;;;;;;0.90;0.60;;;23.50;1.00;;;;;;5118742;28;20476;-77
2022/07/18 07:35:49;;;;;;;0.93;0.60;;;23.70;1.00;;;;;;5119160;28;20509;-75
2022/07/18 07:38:36;;;;;;;1.03;0.60;;;23.80;1.00;;;;;;5112620;28;20457;-75
2022/07/18 07:41:03;;;;;;;1.40;0.47;;;24.00;1.00;;;;;;5117603;28;20480;-76
2022/07/18 07:43:31;;;;;;;0.73;0.60;;;24.10;1.00;;;;;;5093680;28;20841;-75
2022/07/18 07:45:58;;;;;;;1.33;0.60;;;24.10;1.00;;;;;;5108507;28;20874;-75
2022/07/18 07:48:25;;;;;;;0.93;0.60;;;24.20;1.00;;;;;;5105470;28;20959;-75
2022/07/18 07:50:52;;;;;;;1.73;0.60;;;24.30;1.00;;;;;;5112459;28;20480;-78
2022/07/18 07:53:28;;;;;;;2.50;0.70;;;24.40;1.00;;;;;;5115893;28;20445;-77
2022/07/18 07:55:57;;;;;;;0.77;0.60;;;24.50;1.00;;;;;;5115337;28;21104;-77
2022/07/18 07:58:24;;;;;;;1.10;0.70;;;24.50;1.00;;;;;;5101325;28;20442;-75
2022/07/18 08:00:51;;;;;;;1.80;0.80;;;24.60;1.00;;;;;;5114784;28;21117;-75
2022/07/18 08:03:17;;;;;;;1.00;0.70;;;24.80;1.00;;;;;;5114509;28;20510;-76
2022/07/18 08:05:46;;;;;;;0.90;0.70;;;24.80;1.00;;;;;;5102186;28;20503;-75
2022/07/18 08:08:14;;;;;;;1.90;0.70;;;24.90;1.00;;;;;;5103193;28;20453;-75
2022/07/18 08:10:42;;;;;;;3.20;0.80;;;25.00;1.00;;;;;;5116464;28;20441;-75
2022/07/18 08:13:10;;;;;;;2.13;0.80;;;25.10;1.00;;;;;;5117283;28;20747;-76
2022/07/18 08:15:38;;;;;;;0.73;0.67;;;25.10;1.00;;;;;;5117280;28;20493;-75
2022/07/18 08:18:05;;;;;;;3.70;0.90;;;25.20;1.00;;;;;;5115690;28;20541;-74
2022/07/18 08:20:34;;;;;;;1.20;0.80;;;25.40;1.00;;;;;;5116784;28;20472;-74
2022/07/18 08:23:03;;;;;;;2.03;0.73;;;25.50;1.00;;;;;;5116591;28;20985;-74
2022/07/18 08:25:32;;;;;;;2.47;0.83;;;25.70;1.00;;;;;;5107985;28;20493;-74
2022/07/18 08:27:59;;;;;;;1.10;0.80;;;25.80;1.00;;;;;;5113506;28;20951;-73
2022/07/18 08:30:28;;;;;;;5.23;1.10;;;25.90;1.00;;;;;;5114419;28;20464;-73
2022/07/18 08:32:55;;;;;;;2.43;0.80;;;26.00;1.00;;;;;;5113465;28;20972;-74
2022/07/18 08:35:22;;;;;;;1.63;0.77;;;26.00;1.00;;;;;;5114347;28;20461;-73
2022/07/18 08:37:49;;;;;;;1.87;0.80;;;26.00;1.00;;;;;;5113927;28;20448;-73
2022/07/18 08:40:16;;;;;;;1.03;0.80;;;26.20;1.00;;;;;;5111290;28;20493;-73
2022/07/18 08:42:43;;;;;;;1.67;0.70;;;26.20;1.00;;;;;;5105905;28;20475;-73
2022/07/18 08:45:11;;;;;;;1.20;1.10;;;26.40;1.00;;;;;;5109220;28;20449;-73
2022/07/18 08:47:39;;;;;;;1.07;0.90;;;26.50;1.00;;;;;;5112049;28;20485;-74
2022/07/18 08:50:08;;;;;;;1.10;0.80;;;26.60;1.00;;;;;;5105737;28;20469;-73
2022/07/18 08:52:37;;;;;;;2.60;0.80;;;26.60;1.00;;;;;;5111923;28;20463;-74
2022/07/18 08:55:06;;;;;;;2.03;0.80;;;26.70;1.00;;;;;;5112924;28;20207;-75
2022/07/18 08:57:33;;;;;;;1.37;0.80;;;26.70;1.00;;;;;;5111637;28;20456;-75
2022/07/18 09:00:00;;;;;;;0.90;0.67;;;26.80;1.00;;;;;;5112241;28;20583;-74
2022/07/18 09:02:27;;;;;;;1.00;0.67;;;26.90;1.00;;;;;;5111008;28;20452;-74
2022/07/18 09:04:56;;;;;;;0.80;0.70;;;27.00;1.00;;;;;;5112154;28;20532;-73
2022/07/18 09:07:29;;;;;;;0.80;0.67;;;27.10;1.00;;;;;;5115390;28;20549;-73
2022/07/18 09:09:57;;;;;;;0.70;0.60;;;27.20;1.00;;;;;;5096979;28;21019;-73
2022/07/18 09:12:25;;;;;;;4.90;0.70;;;27.20;1.00;;;;;;5101848;28;20549;-73
2022/07/18 09:14:53;;;;;;;2.27;0.73;;;27.30;1.00;;;;;;5113405;28;20750;-74
2022/07/18 09:17:21;;;;;;;2.03;0.87;;;27.40;1.00;;;;;;5109716;28;20553;-73
2022/07/18 09:20:00;;;;;;;1.30;0.83;;;27.60;1.00;;;;;;5106083;28;20473;-72
2022/07/18 09:22:29;;;;;;;1.10;0.60;;;27.70;1.00;;;;;;5094819;28;20490;-72
2022/07/18 09:25:00;;;;;;;1.00;0.70;;;27.80;1.00;;;;;;5111051;28;20471;-72
2022/07/18 09:27:30;;;;;;;1.10;0.70;;;27.90;1.00;;;;;;5113546;28;20785;-72
2022/07/18 09:30:25;;;;;;;1.33;0.80;;;28.10;1.00;;;;;;5114896;28;20517;-72
2022/07/18 09:32:54;;;;;;;1.23;0.70;;;28.20;1.00;;;;;;5113852;28;20448;-72
2022/07/18 09:35:27;;;;;;;1.23;0.70;;;28.30;1.00;;;;;;5115677;28;20606;-72
2022/07/18 09:38:00;;;;;;;0.77;0.60;;;28.10;99.90;;;;;;5115591;28;20453;-72
2022/07/18 09:40:30;;;;;;;1.13;0.70;;;28.20;99.90;;;;;;5103189;28;20593;-71
2022/07/18 09:42:58;;;;;;;0.97;0.60;;;28.30;1.00;;;;;;5109643;28;20461;-71
2022/07/18 09:45:28;;;;;;;2.50;0.70;;;28.50;99.90;;;;;;5101322;28;20548;-71
2022/07/18 09:47:57;;;;;;;1.90;0.60;;;28.60;99.90;;;;;;5109405;28;20544;-72
2022/07/18 09:50:31;;;;;;;0.73;0.70;;;28.70;99.90;;;;;;5113979;28;20562;-72
2022/07/18 09:53:08;;;;;;;1.63;0.80;;;28.80;99.90;;;;;;5113299;28;20488;-71
2022/07/18 09:55:35;;;;;;;1.83;0.67;;;28.70;99.90;;;;;;5099682;28;20464;-71
2022/07/18 09:58:06;;;;;;;2.03;0.70;;;28.90;99.90;;;;;;5103799;28;20465;-71
2022/07/18 10:00:37;;;;;;;0.70;0.60;;;29.10;99.90;;;;;;5111416;28;20480;-71
2022/07/18 10:03:06;;;;;;;0.90;0.60;;;29.20;99.90;;;;;;5113650;28;20484;-71
2022/07/18 10:05:35;;;;;;;0.80;0.60;;;29.20;99.90;;;;;;5109358;28;20547;-72
2022/07/18 10:08:05;;;;;;;0.90;0.60;;;29.30;99.90;;;;;;5112418;28;20495;-71
2022/07/18 10:10:32;;;;;;;1.20;0.60;;;29.10;99.90;;;;;;5114244;28;20476;-71
2022/07/18 10:13:01;;;;;;;0.90;0.60;;;29.30;99.90;;;;;;5110152;28;21015;-71
2022/07/18 10:15:29;;;;;;;11.90;0.87;;;29.70;99.90;;;;;;5113614;28;20916;-72
2022/07/18 10:17:58;;;;;;;5.80;1.17;;;30.00;99.90;;;;;;5104888;28;20477;-71
2022/07/18 10:20:30;;;;;;;0.67;0.60;;;30.10;99.90;;;;;;5113215;28;20954;-71
2022/07/18 10:23:02;;;;;;;0.70;0.60;;;30.40;99.90;;;;;;5112415;28;20488;-71
2022/07/18 10:25:30;;;;;;;1.43;0.60;;;30.70;99.90;;;;;;5110351;28;20928;-71
2022/07/18 10:28:05;;;;;;;0.83;0.60;;;30.60;99.90;;;;;;5110546;28;20495;-71
2022/07/18 10:30:37;;;;;;;0.70;0.57;;;30.60;99.90;;;;;;5108842;28;20974;-72
2022/07/18 10:33:25;;;;;;;1.30;0.70;;;31.00;99.90;;;;;;5110975;28;20504;-71
2022/07/18 10:36:04;;;;;;;3.13;0.60;;;31.40;99.90;;;;;;5111120;28;20476;-71
2022/07/18 10:38:33;;;;;;;0.80;0.60;;;31.90;99.90;;;;;;5091108;28;20502;-71
2022/07/18 10:41:11;;;;;;;0.80;0.70;;;32.30;99.90;;;;;;5091483;28;20622;-70
2022/07/18 10:43:40;;;;;;;0.73;0.60;;;32.60;99.90;;;;;;5088721;28;20846;-72
2022/07/18 10:46:09;;;;;;;0.70;0.60;;;32.60;99.90;;;;;;5090629;28;20618;-71
2022/07/18 10:48:58;;;;;;;0.70;0.53;;;32.80;99.90;;;;;;5090393;28;20472;-71
2022/07/18 10:51:33;;;;;;;0.80;0.57;;;33.00;99.90;;;;;;5078501;28;20561;-70
2022/07/18 10:54:16;;;;;;;0.53;0.50;;;32.60;99.90;;;;;;5079452;28;20536;-72
2022/07/18 10:57:08;;;;;;;0.50;0.47;;;32.90;99.90;;;;;;5079554;28;20788;-70
2022/07/18 10:59:36;;;;;;;0.60;0.50;;;33.20;99.90;;;;;;5080974;28;20462;-70
2022/07/18 11:02:08;;;;;;;0.60;0.50;;;33.20;99.90;;;;;;5091369;28;20909;-70
2022/07/18 11:04:39;;;;;;;0.70;0.50;;;33.40;99.90;;;;;;5084655;28;20929;-70
2022/07/18 11:07:10;;;;;;;0.70;0.50;;;33.80;99.90;;;;;;5082785;28;20469;-70
2022/07/18 11:09:44;;;;;;;0.60;0.50;;;33.90;99.90;;;;;;5081576;28;20450;-71
2022/07/18 11:12:22;;;;;;;0.50;0.40;;;33.80;99.90;;;;;;5089295;28;20494;-72
2022/07/18 11:15:04;;;;;;;0.50;0.40;;;33.70;99.90;;;;;;5092022;28;20462;-72
2022/07/18 11:17:59;;;;;;;0.90;0.50;;;33.60;99.90;;;;;;5091689;28;20515;-71
2022/07/18 11:20:36;;;;;;;2.60;0.40;;;33.30;99.90;;;;;;5035902;28;21128;-72
2022/07/18 11:23:04;;;;;;;0.53;0.40;;;33.10;99.90;;;;;;5085143;28;20889;-73
2022/07/18 11:25:32;;;;;;;0.60;0.40;;;32.90;99.90;;;;;;5093293;28;20871;-72
2022/07/18 11:27:59;;;;;;;0.50;0.40;;;32.80;99.90;;;;;;5109924;28;20491;-71
2022/07/18 11:30:26;;;;;;;0.57;0.40;;;32.90;99.90;;;;;;5100319;28;20553;-71
2022/07/18 11:32:53;;;;;;;0.57;0.40;;;33.10;99.90;;;;;;5085590;28;20458;-72
2022/07/18 11:35:25;;;;;;;0.40;0.30;;;33.20;99.90;;;;;;5080612;28;20486;-73
2022/07/18 11:37:55;;;;;;;0.53;0.40;;;33.40;99.90;;;;;;5095804;28;20808;-72
2022/07/18 11:40:23;;;;;;;1.43;0.33;;;33.70;99.90;;;;;;5106059;28;20482;-71
2022/07/18 11:42:51;;;;;;;0.53;0.40;;;33.80;99.90;;;;;;5110083;28;20456;-72
2022/07/18 11:45:18;;;;;;;0.50;0.40;;;34.10;99.90;;;;;;5114154;28;20532;-72
2022/07/18 11:47:49;;;;;;;0.53;0.40;;;33.90;99.90;;;;;;5110112;28;20839;-71
2022/07/18 11:50:17;;;;;;;0.40;0.30;;;33.60;99.90;;;;;;5112566;28;20473;-71
2022/07/18 11:52:45;;;;;;;0.80;0.40;;;33.70;99.90;;;;;;5115839;28;20456;-71
2022/07/18 11:55:13;;;;;;;0.53;0.40;;;33.80;99.90;;;;;;5101977;28;20511;-71
2022/07/18 11:57:41;;;;;;;0.53;0.40;;;33.70;99.90;;;;;;5104516;28;20547;-71
2022/07/18 12:00:21;;;;;;;0.40;0.40;;;33.30;99.90;;;;;;5114194;28;20574;-70
2022/07/18 12:03:08;;;;;;;0.70;0.40;;;33.30;99.90;;;;;;5113156;28;20552;-71
2022/07/18 12:05:37;;;;;;;0.60;0.40;;;33.90;99.90;;;;;;5100351;28;20884;-71
2022/07/18 12:08:32;;;;;;;0.50;0.40;;;34.30;99.90;;;;;;5113357;28;20544;-70
2022/07/18 12:11:14;;;;;;;0.50;0.30;;;34.60;99.90;;;;;;5110071;28;20533;-73
2022/07/18 12:13:47;;;;;;;0.53;0.40;;;34.70;99.90;;;;;;5104940;28;20569;-72
2022/07/18 12:16:40;;;;;;;0.53;0.40;;;34.50;99.90;;;;;;5113558;28;21039;-72
2022/07/18 12:19:10;;;;;;;0.57;0.40;;;34.40;99.90;;;;;;5080613;28;20453;-72
2022/07/18 12:21:47;;;;;;;0.60;0.40;;;34.60;99.90;;;;;;5112288;28;20950;-71
2022/07/18 12:24:27;;;;;;;0.50;0.40;;;35.00;99.90;;;;;;5113579;28;20527;-72
2022/07/18 12:27:16;;;;;;;0.90;0.37;;;35.10;99.90;;;;;;5115311;28;20888;-71
2022/07/18 12:30:18;;;;;;;0.50;0.40;;;34.80;99.90;;;;;;5114130;28;20552;-72
2022/07/18 12:32:51;;;;;;;1.53;0.93;;;34.70;99.90;;;;;;5028421;28;20486;-71
2022/07/18 12:35:20;;;;;;;0.60;0.40;;;34.80;99.90;;;;;;5092373;28;20526;-71
2022/07/18 12:37:56;;;;;;;0.50;0.40;;;34.80;99.90;;;;;;5114615;28;20191;-71
2022/07/18 12:40:24;;;;;;;0.60;0.40;;;34.70;99.90;;;;;;5110353;28;20570;-71
2022/07/18 12:43:02;;;;;;;0.50;0.40;;;35.00;99.90;;;;;;5104612;28;20770;-72
2022/07/18 12:45:29;;;;;;;2.20;0.30;;;35.30;99.90;;;;;;5107122;28;20531;-72
2022/07/18 12:47:58;;;;;;;0.50;0.40;;;35.50;99.90;;;;;;5114379;28;20460;-72
2022/07/18 12:50:25;;;;;;;0.80;0.40;;;35.20;99.90;;;;;;5114433;28;20537;-71
2022/07/18 12:52:51;;;;;;;0.53;0.50;;;34.80;99.90;;;;;;5113799;28;20531;-71
2022/07/18 12:55:19;;;;;;;0.77;0.40;;;35.00;99.90;;;;;;5114327;28;20531;-72
2022/07/18 12:57:46;;;;;;;0.47;0.40;;;34.80;99.90;;;;;;5095763;28;20453;-72
2022/07/18 13:00:14;;;;;;;0.60;0.40;;;35.00;99.90;;;;;;5103983;28;20475;-71